sensor_id;sensor_type;location;lat;lon;timestamp;temperature;humidity
8979;DHT22;4524;51.364;5.448;2024-03-22T00:02:26;12.20;99.90
8979;DHT22;4524;51.364;5.448;2024-03-22T00:04:53;12.30;99.90
8979;DHT22;4524;51.364;5.448;2024-03-22T00:07:19;12.30;99.90
8979;DHT22;4524;51.364;5.448;2024-03-22T00:09:47;12.30;99.90
8979;DHT22;4524;51.364;5.448;2024-03-22T00:12:13;12.30;99.90
8979;DHT22;4524;51.364;5.448;2024-03-22T00:14:40;12.30;99.90
8979;DHT22;4524;51.364;5.448;2024-03-22T00:17:06;12.30;99.90
8979;DHT22;4524;51.364;5.448;2024-03-22T00:19:35;12.30;99.90
8979;DHT22;4524;51.364;5.448;2024-03-22T00:22:01;12.30;99.90
8979;DHT22;4524;51.364;5.448;2024-03-22T00:24:28;12.40;99.90
8979;DHT22;4524;51.364;5.448;2024-03-22T00:26:55;12.40;99.90
8979;DHT22;4524;51.364;5.448;2024-03-22T00:29:22;12.40;99.90
8979;DHT22;4524;51.364;5.448;2024-03-22T00:31:48;12.40;99.90
8979;DHT22;4524;51.364;5.448;2024-03-22T00:34:15;12.40;99.90
8979;DHT22;4524;51.364;5.448;2024-03-22T00:36:42;12.40;99.90
8979;DHT22;4524;51.364;5.448;2024-03-22T00:39:09;12.40;99.90
8979;DHT22;4524;51.364;5.448;2024-03-22T00:41:35;12.50;99.90
8979;DHT22;4524;51.364;5.448;2024-03-22T00:44:03;12.50;99.90
8979;DHT22;4524;51.364;5.448;2024-03-22T00:46:30;12.50;99.90
8979;DHT22;4524;51.364;5.448;2024-03-22T00:48:57;12.50;99.90
8979;DHT22;4524;51.364;5.448;2024-03-22T00:51:25;12.50;99.90
8979;DHT22;4524;51.364;5.448;2024-03-22T00:53:53;12.50;99.90
8979;DHT22;4524;51.364;5.448;2024-03-22T00:56:19;12.50;99.90
8979;DHT22;4524;51.364;5.448;2024-03-22T00:58:46;12.50;99.90
8979;DHT22;4524;51.364;5.448;2024-03-22T01:01:13;12.50;99.90
8979;DHT22;4524;51.364;5.448;2024-03-22T01:03:40;12.50;99.90
8979;DHT22;4524;51.364;5.448;2024-03-22T01:06:06;12.50;99.90
8979;DHT22;4524;51.364;5.448;2024-03-22T01:08:34;12.50;99.90
8979;DHT22;4524;51.364;5.448;2024-03-22T01:11:00;12.50;99.90
8979;DHT22;4524;51.364;5.448;2024-03-22T01:13:27;12.50;99.90
8979;DHT22;4524;51.364;5.448;2024-03-22T01:15:53;12.50;99.90
8979;DHT22;4524;51.364;5.448;2024-03-22T01:18:21;12.50;99.90
8979;DHT22;4524;51.364;5.448;2024-03-22T01:20:47;12.50;99.90
8979;DHT22;4524;51.364;5.448;2024-03-22T01:23:15;12.50;99.90
8979;DHT22;4524;51.364;5.448;2024-03-22T01:25:41;12.50;99.90
8979;DHT22;4524;51.364;5.448;2024-03-22T01:28:08;12.50;99.90
8979;DHT22;4524;51.364;5.448;2024-03-22T01:30:34;12.50;99.90
8979;DHT22;4524;51.364;5.448;2024-03-22T01:33:02;12.60;99.90
8979;DHT22;4524;51.364;5.448;2024-03-22T01:35:30;12.50;99.90
8979;DHT22;4524;51.364;5.448;2024-03-22T01:37:57;12.50;99.90
8979;DHT22;4524;51.364;5.448;2024-03-22T01:40:23;12.60;99.90
8979;DHT22;4524;51.364;5.448;2024-03-22T01:42:53;12.60;99.90
8979;DHT22;4524;51.364;5.448;2024-03-22T01:45:19;12.60;99.90
8979;DHT22;4524;51.364;5.448;2024-03-22T01:47:46;12.60;99.90
8979;DHT22;4524;51.364;5.448;2024-03-22T01:50:13;12.60;99.90
8979;DHT22;4524;51.364;5.448;2024-03-22T01:52:41;12.60;99.90
8979;DHT22;4524;51.364;5.448;2024-03-22T01:55:08;12.60;99.90
8979;DHT22;4524;51.364;5.448;2024-03-22T01:57:36;12.60;99.90
8979;DHT22;4524;51.364;5.448;2024-03-22T02:00:02;12.60;99.90
8979;DHT22;4524;51.364;5.448;2024-03-22T02:02:39;12.60;99.90
8979;DHT22;4524;51.364;5.448;2024-03-22T02:05:12;12.50;99.90
8979;DHT22;4524;51.364;5.448;2024-03-22T02:07:42;12.50;99.90
8979;DHT22;4524;51.364;5.448;2024-03-22T02:10:09;12.50;99.90
8979;DHT22;4524;51.364;5.448;2024-03-22T02:12:38;12.40;99.90
8979;DHT22;4524;51.364;5.448;2024-03-22T02:15:04;12.40;99.90
8979;DHT22;4524;51.364;5.448;2024-03-22T02:17:32;12.40;99.90
8979;DHT22;4524;51.364;5.448;2024-03-22T02:19:59;12.30;99.90
8979;DHT22;4524;51.364;5.448;2024-03-22T02:22:26;12.30;99.90
8979;DHT22;4524;51.364;5.448;2024-03-22T02:24:54;12.20;99.90
8979;DHT22;4524;51.364;5.448;2024-03-22T02:27:21;12.20;99.90
8979;DHT22;4524;51.364;5.448;2024-03-22T02:29:47;12.20;99.90
8979;DHT22;4524;51.364;5.448;2024-03-22T02:32:14;12.10;99.90
8979;DHT22;4524;51.364;5.448;2024-03-22T02:34:40;12.10;99.90
8979;DHT22;4524;51.364;5.448;2024-03-22T02:37:07;12.10;99.90
8979;DHT22;4524;51.364;5.448;2024-03-22T02:39:33;12.10;99.90
8979;DHT22;4524;51.364;5.448;2024-03-22T02:42:02;12.20;99.90
8979;DHT22;4524;51.364;5.448;2024-03-22T02:44:28;12.20;99.90
8979;DHT22;4524;51.364;5.448;2024-03-22T02:46:55;12.20;99.90
8979;DHT22;4524;51.364;5.448;2024-03-22T02:49:21;12.20;99.90
8979;DHT22;4524;51.364;5.448;2024-03-22T02:51:48;12.30;99.90
8979;DHT22;4524;51.364;5.448;2024-03-22T02:54:14;12.30;99.90
8979;DHT22;4524;51.364;5.448;2024-03-22T02:56:41;12.30;99.90
8979;DHT22;4524;51.364;5.448;2024-03-22T02:59:09;12.30;99.90
8979;DHT22;4524;51.364;5.448;2024-03-22T03:01:36;12.30;99.90
8979;DHT22;4524;51.364;5.448;2024-03-22T03:04:02;12.40;99.90
8979;DHT22;4524;51.364;5.448;2024-03-22T03:06:29;12.30;99.90
8979;DHT22;4524;51.364;5.448;2024-03-22T03:08:55;12.30;99.90
8979;DHT22;4524;51.364;5.448;2024-03-22T03:11:22;12.20;99.90
8979;DHT22;4524;51.364;5.448;2024-03-22T03:13:48;12.20;99.90
8979;DHT22;4524;51.364;5.448;2024-03-22T03:16:17;12.20;99.90
8979;DHT22;4524;51.364;5.448;2024-03-22T03:18:43;12.20;99.90
8979;DHT22;4524;51.364;5.448;2024-03-22T03:21:10;12.10;99.90
8979;DHT22;4524;51.364;5.448;2024-03-22T03:23:36;12.20;99.90
8979;DHT22;4524;51.364;5.448;2024-03-22T03:26:03;12.20;99.90
8979;DHT22;4524;51.364;5.448;2024-03-22T03:28:30;12.20;99.90
8979;DHT22;4524;51.364;5.448;2024-03-22T03:30:57;12.10;99.90
8979;DHT22;4524;51.364;5.448;2024-03-22T03:33:24;12.10;99.90
8979;DHT22;4524;51.364;5.448;2024-03-22T03:35:51;12.10;99.90
8979;DHT22;4524;51.364;5.448;2024-03-22T03:38:17;12.00;99.90
8979;DHT22;4524;51.364;5.448;2024-03-22T03:40:44;12.00;99.90
8979;DHT22;4524;51.364;5.448;2024-03-22T03:43:11;12.00;99.90
8979;DHT22;4524;51.364;5.448;2024-03-22T03:45:38;12.00;99.90
8979;DHT22;4524;51.364;5.448;2024-03-22T03:48:04;12.00;99.90
8979;DHT22;4524;51.364;5.448;2024-03-22T03:50:33;12.00;99.90
8979;DHT22;4524;51.364;5.448;2024-03-22T03:52:59;12.00;99.90
8979;DHT22;4524;51.364;5.448;2024-03-22T03:55:26;12.00;99.90
8979;DHT22;4524;51.364;5.448;2024-03-22T03:57:53;11.90;99.90
8979;DHT22;4524;51.364;5.448;2024-03-22T04:00:20;11.90;99.90
8979;DHT22;4524;51.364;5.448;2024-03-22T04:02:48;11.90;99.90
8979;DHT22;4524;51.364;5.448;2024-03-22T04:05:15;12.00;99.90
8979;DHT22;4524;51.364;5.448;2024-03-22T04:07:47;11.90;99.90
8979;DHT22;4524;51.364;5.448;2024-03-22T04:10:14;11.90;99.90
8979;DHT22;4524;51.364;5.448;2024-03-22T04:12:40;11.90;99.90
8979;DHT22;4524;51.364;5.448;2024-03-22T04:15:08;11.90;99.90
8979;DHT22;4524;51.364;5.448;2024-03-22T04:17:34;12.00;99.90
8979;DHT22;4524;51.364;5.448;2024-03-22T04:20:01;11.90;99.90
8979;DHT22;4524;51.364;5.448;2024-03-22T04:22:28;12.00;99.90
8979;DHT22;4524;51.364;5.448;2024-03-22T04:24:57;12.00;99.90
8979;DHT22;4524;51.364;5.448;2024-03-22T04:27:23;12.00;99.90
8979;DHT22;4524;51.364;5.448;2024-03-22T04:29:50;12.00;99.90
8979;DHT22;4524;51.364;5.448;2024-03-22T04:32:16;12.10;99.90
8979;DHT22;4524;51.364;5.448;2024-03-22T04:34:43;12.10;99.90
8979;DHT22;4524;51.364;5.448;2024-03-22T04:37:10;12.10;99.90
8979;DHT22;4524;51.364;5.448;2024-03-22T04:39:38;12.10;99.90
8979;DHT22;4524;51.364;5.448;2024-03-22T04:42:07;12.10;99.90
8979;DHT22;4524;51.364;5.448;2024-03-22T04:44:34;12.10;99.90
8979;DHT22;4524;51.364;5.448;2024-03-22T04:47:01;12.10;99.90
8979;DHT22;4524;51.364;5.448;2024-03-22T04:49:28;12.10;99.90
8979;DHT22;4524;51.364;5.448;2024-03-22T04:51:55;12.00;99.90
8979;DHT22;4524;51.364;5.448;2024-03-22T04:54:22;12.00;99.90
8979;DHT22;4524;51.364;5.448;2024-03-22T04:56:48;12.00;99.90
8979;DHT22;4524;51.364;5.448;2024-03-22T04:59:16;12.00;99.90
8979;DHT22;4524;51.364;5.448;2024-03-22T05:01:43;11.90;99.90
8979;DHT22;4524;51.364;5.448;2024-03-22T05:04:11;11.90;99.90
8979;DHT22;4524;51.364;5.448;2024-03-22T05:06:37;11.90;99.90
8979;DHT22;4524;51.364;5.448;2024-03-22T05:09:04;11.90;99.90
8979;DHT22;4524;51.364;5.448;2024-03-22T05:11:30;11.90;99.90
8979;DHT22;4524;51.364;5.448;2024-03-22T05:13:58;11.90;99.90
8979;DHT22;4524;51.364;5.448;2024-03-22T05:16:25;11.90;99.90
8979;DHT22;4524;51.364;5.448;2024-03-22T05:18:52;11.90;99.90
8979;DHT22;4524;51.364;5.448;2024-03-22T05:21:18;11.80;99.90
8979;DHT22;4524;51.364;5.448;2024-03-22T05:23:45;11.90;99.90
8979;DHT22;4524;51.364;5.448;2024-03-22T05:26:11;11.80;99.90
8979;DHT22;4524;51.364;5.448;2024-03-22T05:28:38;11.80;99.90
8979;DHT22;4524;51.364;5.448;2024-03-22T05:31:04;11.80;99.90
8979;DHT22;4524;51.364;5.448;2024-03-22T05:33:33;11.80;99.90
8979;DHT22;4524;51.364;5.448;2024-03-22T05:35:59;11.70;99.90
8979;DHT22;4524;51.364;5.448;2024-03-22T05:38:26;11.70;99.90
8979;DHT22;4524;51.364;5.448;2024-03-22T05:40:52;11.70;99.90
8979;DHT22;4524;51.364;5.448;2024-03-22T05:43:19;11.70;99.90
8979;DHT22;4524;51.364;5.448;2024-03-22T05:45:45;11.70;99.90
8979;DHT22;4524;51.364;5.448;2024-03-22T05:48:12;11.70;99.90
8979;DHT22;4524;51.364;5.448;2024-03-22T05:50:40;11.60;99.90
8979;DHT22;4524;51.364;5.448;2024-03-22T05:53:08;11.70;99.90
8979;DHT22;4524;51.364;5.448;2024-03-22T05:55:34;11.70;99.90
8979;DHT22;4524;51.364;5.448;2024-03-22T05:58:01;11.60;99.90
8979;DHT22;4524;51.364;5.448;2024-03-22T06:00:27;11.60;99.90
8979;DHT22;4524;51.364;5.448;2024-03-22T06:02:54;11.60;99.90
8979;DHT22;4524;51.364;5.448;2024-03-22T06:05:20;11.60;99.90
8979;DHT22;4524;51.364;5.448;2024-03-22T06:07:48;11.70;99.90
8979;DHT22;4524;51.364;5.448;2024-03-22T06:10:15;11.70;99.90
8979;DHT22;4524;51.364;5.448;2024-03-22T06:12:42;11.80;99.90
8979;DHT22;4524;51.364;5.448;2024-03-22T06:15:10;11.70;99.90
8979;DHT22;4524;51.364;5.448;2024-03-22T06:17:37;11.80;99.90
8979;DHT22;4524;51.364;5.448;2024-03-22T06:20:04;11.80;99.90
8979;DHT22;4524;51.364;5.448;2024-03-22T06:22:31;11.80;99.90
8979;DHT22;4524;51.364;5.448;2024-03-22T06:24:59;11.80;99.90
8979;DHT22;4524;51.364;5.448;2024-03-22T06:27:26;11.80;99.90
8979;DHT22;4524;51.364;5.448;2024-03-22T06:29:52;11.90;99.90
8979;DHT22;4524;51.364;5.448;2024-03-22T06:32:19;11.90;99.90
8979;DHT22;4524;51.364;5.448;2024-03-22T06:34:45;12.00;99.90
8979;DHT22;4524;51.364;5.448;2024-03-22T06:37:12;11.90;99.90
8979;DHT22;4524;51.364;5.448;2024-03-22T06:39:38;12.00;99.90
8979;DHT22;4524;51.364;5.448;2024-03-22T06:42:07;12.00;99.90
8979;DHT22;4524;51.364;5.448;2024-03-22T06:44:33;12.00;99.90
8979;DHT22;4524;51.364;5.448;2024-03-22T06:47:00;12.00;99.90
8979;DHT22;4524;51.364;5.448;2024-03-22T06:49:26;12.00;99.90
8979;DHT22;4524;51.364;5.448;2024-03-22T06:51:53;12.00;99.90
8979;DHT22;4524;51.364;5.448;2024-03-22T06:54:19;12.10;99.90
8979;DHT22;4524;51.364;5.448;2024-03-22T06:56:46;12.20;99.90
8979;DHT22;4524;51.364;5.448;2024-03-22T06:59:13;12.20;99.90
8979;DHT22;4524;51.364;5.448;2024-03-22T07:01:40;12.20;99.90
8979;DHT22;4524;51.364;5.448;2024-03-22T07:04:06;12.20;99.90
8979;DHT22;4524;51.364;5.448;2024-03-22T07:06:34;12.20;99.90
8979;DHT22;4524;51.364;5.448;2024-03-22T07:09:00;12.20;99.90
8979;DHT22;4524;51.364;5.448;2024-03-22T07:11:27;12.10;99.90
8979;DHT22;4524;51.364;5.448;2024-03-22T07:13:53;12.10;99.90
8979;DHT22;4524;51.364;5.448;2024-03-22T07:16:22;12.00;99.90
8979;DHT22;4524;51.364;5.448;2024-03-22T07:18:48;12.00;99.90
8979;DHT22;4524;51.364;5.448;2024-03-22T07:21:15;12.10;99.90
8979;DHT22;4524;51.364;5.448;2024-03-22T07:23:42;12.10;99.90
8979;DHT22;4524;51.364;5.448;2024-03-22T07:26:09;12.20;99.90
8979;DHT22;4524;51.364;5.448;2024-03-22T07:28:35;12.20;99.90
8979;DHT22;4524;51.364;5.448;2024-03-22T07:31:02;12.30;99.90
8979;DHT22;4524;51.364;5.448;2024-03-22T07:33:31;12.40;99.90
8979;DHT22;4524;51.364;5.448;2024-03-22T07:36:01;12.60;99.90
8979;DHT22;4524;51.364;5.448;2024-03-22T07:38:28;12.70;99.90
8979;DHT22;4524;51.364;5.448;2024-03-22T07:40:55;12.70;99.90
8979;DHT22;4524;51.364;5.448;2024-03-22T07:43:21;12.80;99.90
8979;DHT22;4524;51.364;5.448;2024-03-22T07:45:48;12.90;99.90
8979;DHT22;4524;51.364;5.448;2024-03-22T07:48:14;13.00;99.90
8979;DHT22;4524;51.364;5.448;2024-03-22T07:50:43;13.10;99.90
8979;DHT22;4524;51.364;5.448;2024-03-22T07:53:09;13.10;99.90
8979;DHT22;4524;51.364;5.448;2024-03-22T07:55:36;13.10;99.90
8979;DHT22;4524;51.364;5.448;2024-03-22T07:58:02;13.10;99.90
8979;DHT22;4524;51.364;5.448;2024-03-22T08:00:30;13.10;99.90
8979;DHT22;4524;51.364;5.448;2024-03-22T08:02:57;13.10;99.90
8979;DHT22;4524;51.364;5.448;2024-03-22T08:05:24;13.20;99.90
8979;DHT22;4524;51.364;5.448;2024-03-22T08:07:51;13.20;99.90
8979;DHT22;4524;51.364;5.448;2024-03-22T08:10:18;13.50;99.90
8979;DHT22;4524;51.364;5.448;2024-03-22T08:12:44;13.60;99.90
8979;DHT22;4524;51.364;5.448;2024-03-22T08:15:11;13.60;99.90
8979;DHT22;4524;51.364;5.448;2024-03-22T08:17:38;13.70;99.90
8979;DHT22;4524;51.364;5.448;2024-03-22T08:20:06;13.90;99.90
8979;DHT22;4524;51.364;5.448;2024-03-22T08:22:32;13.80;99.90
8979;DHT22;4524;51.364;5.448;2024-03-22T08:25:01;13.80;99.90
8979;DHT22;4524;51.364;5.448;2024-03-22T08:27:28;13.80;99.90
8979;DHT22;4524;51.364;5.448;2024-03-22T08:29:55;13.70;99.90
8979;DHT22;4524;51.364;5.448;2024-03-22T08:32:21;13.80;99.90
8979;DHT22;4524;51.364;5.448;2024-03-22T08:34:48;13.70;99.90
8979;DHT22;4524;51.364;5.448;2024-03-22T08:37:14;13.60;99.90
8979;DHT22;4524;51.364;5.448;2024-03-22T08:39:41;13.60;99.90
8979;DHT22;4524;51.364;5.448;2024-03-22T08:42:08;13.70;99.90
8979;DHT22;4524;51.364;5.448;2024-03-22T08:44:36;13.60;99.90
8979;DHT22;4524;51.364;5.448;2024-03-22T08:47:02;13.60;99.90
8979;DHT22;4524;51.364;5.448;2024-03-22T08:49:29;13.50;99.90
8979;DHT22;4524;51.364;5.448;2024-03-22T08:51:56;13.60;99.90
8979;DHT22;4524;51.364;5.448;2024-03-22T08:54:22;13.60;99.90
8979;DHT22;4524;51.364;5.448;2024-03-22T08:56:49;13.50;99.90
8979;DHT22;4524;51.364;5.448;2024-03-22T08:59:16;13.50;99.90
8979;DHT22;4524;51.364;5.448;2024-03-22T09:01:43;13.50;99.90
8979;DHT22;4524;51.364;5.448;2024-03-22T09:04:09;13.60;99.90
8979;DHT22;4524;51.364;5.448;2024-03-22T09:06:36;13.60;99.90
8979;DHT22;4524;51.364;5.448;2024-03-22T09:09:03;13.60;99.90
8979;DHT22;4524;51.364;5.448;2024-03-22T09:11:30;13.60;99.90
8979;DHT22;4524;51.364;5.448;2024-03-22T09:13:56;13.60;99.90
8979;DHT22;4524;51.364;5.448;2024-03-22T09:16:24;13.60;99.90
8979;DHT22;4524;51.364;5.448;2024-03-22T09:18:50;13.60;99.90
8979;DHT22;4524;51.364;5.448;2024-03-22T09:21:18;13.60;99.90
8979;DHT22;4524;51.364;5.448;2024-03-22T09:23:44;13.60;99.90
8979;DHT22;4524;51.364;5.448;2024-03-22T09:26:11;13.60;99.90
8979;DHT22;4524;51.364;5.448;2024-03-22T09:28:37;13.60;99.90
8979;DHT22;4524;51.364;5.448;2024-03-22T09:31:04;13.70;99.90
8979;DHT22;4524;51.364;5.448;2024-03-22T09:33:33;13.60;99.90
8979;DHT22;4524;51.364;5.448;2024-03-22T09:36:00;13.70;99.90
8979;DHT22;4524;51.364;5.448;2024-03-22T09:38:26;13.90;98.20
8979;DHT22;4524;51.364;5.448;2024-03-22T09:40:53;14.00;96.10
8979;DHT22;4524;51.364;5.448;2024-03-22T09:43:20;14.00;97.60
8979;DHT22;4524;51.364;5.448;2024-03-22T09:45:48;14.00;99.80
8979;DHT22;4524;51.364;5.448;2024-03-22T09:48:15;14.00;96.60
8979;DHT22;4524;51.364;5.448;2024-03-22T09:50:45;13.90;97.60
8979;DHT22;4524;51.364;5.448;2024-03-22T09:53:12;13.90;95.80
8979;DHT22;4524;51.364;5.448;2024-03-22T09:55:40;14.00;97.90
8979;DHT22;4524;51.364;5.448;2024-03-22T09:58:09;14.00;98.50
8979;DHT22;4524;51.364;5.448;2024-03-22T10:00:36;14.00;99.20
8979;DHT22;4524;51.364;5.448;2024-03-22T10:03:04;14.00;96.40
8979;DHT22;4524;51.364;5.448;2024-03-22T10:05:31;14.10;94.40
8979;DHT22;4524;51.364;5.448;2024-03-22T10:07:59;14.10;93.00
8979;DHT22;4524;51.364;5.448;2024-03-22T10:10:26;14.10;92.90
8979;DHT22;4524;51.364;5.448;2024-03-22T10:12:52;14.00;94.60
8979;DHT22;4524;51.364;5.448;2024-03-22T10:15:19;13.90;93.70
8979;DHT22;4524;51.364;5.448;2024-03-22T10:17:45;13.90;93.70
8979;DHT22;4524;51.364;5.448;2024-03-22T10:20:14;13.90;94.40
8979;DHT22;4524;51.364;5.448;2024-03-22T10:22:42;13.90;94.40
8979;DHT22;4524;51.364;5.448;2024-03-22T10:25:10;13.80;93.50
8979;DHT22;4524;51.364;5.448;2024-03-22T10:27:38;13.70;93.80
8979;DHT22;4524;51.364;5.448;2024-03-22T10:30:08;13.70;95.50
8979;DHT22;4524;51.364;5.448;2024-03-22T10:32:35;13.70;96.30
8979;DHT22;4524;51.364;5.448;2024-03-22T10:35:03;13.70;96.50
8979;DHT22;4524;51.364;5.448;2024-03-22T10:37:32;13.60;96.80
8979;DHT22;4524;51.364;5.448;2024-03-22T10:40:01;13.70;98.70
8979;DHT22;4524;51.364;5.448;2024-03-22T10:42:35;13.70;97.10
8979;DHT22;4524;51.364;5.448;2024-03-22T10:45:04;13.70;97.90
8979;DHT22;4524;51.364;5.448;2024-03-22T10:47:32;13.70;96.60
8979;DHT22;4524;51.364;5.448;2024-03-22T10:50:04;13.60;98.60
8979;DHT22;4524;51.364;5.448;2024-03-22T10:52:31;13.60;98.00
8979;DHT22;4524;51.364;5.448;2024-03-22T10:55:00;13.60;97.70
8979;DHT22;4524;51.364;5.448;2024-03-22T10:57:27;13.60;97.00
8979;DHT22;4524;51.364;5.448;2024-03-22T10:59:56;13.60;98.80
8979;DHT22;4524;51.364;5.448;2024-03-22T11:02:24;13.60;98.50
8979;DHT22;4524;51.364;5.448;2024-03-22T11:04:56;13.70;99.20
8979;DHT22;4524;51.364;5.448;2024-03-22T11:07:26;13.60;99.90
8979;DHT22;4524;51.364;5.448;2024-03-22T11:09:56;13.60;99.60
8979;DHT22;4524;51.364;5.448;2024-03-22T11:12:24;13.50;99.80
8979;DHT22;4524;51.364;5.448;2024-03-22T11:14:53;13.60;99.90
8979;DHT22;4524;51.364;5.448;2024-03-22T11:17:20;13.50;99.90
8979;DHT22;4524;51.364;5.448;2024-03-22T11:19:50;13.50;99.90
8979;DHT22;4524;51.364;5.448;2024-03-22T11:22:17;13.60;99.90
8979;DHT22;4524;51.364;5.448;2024-03-22T11:24:44;13.60;99.90
8979;DHT22;4524;51.364;5.448;2024-03-22T11:27:11;13.50;99.90
8979;DHT22;4524;51.364;5.448;2024-03-22T11:29:38;13.40;99.90
8979;DHT22;4524;51.364;5.448;2024-03-22T11:32:07;13.30;99.90
8979;DHT22;4524;51.364;5.448;2024-03-22T11:34:36;13.40;99.90
8979;DHT22;4524;51.364;5.448;2024-03-22T11:37:04;13.40;99.90
8979;DHT22;4524;51.364;5.448;2024-03-22T11:39:32;13.30;99.90
8979;DHT22;4524;51.364;5.448;2024-03-22T11:42:01;13.30;99.90
8979;DHT22;4524;51.364;5.448;2024-03-22T11:44:28;13.40;99.90
8979;DHT22;4524;51.364;5.448;2024-03-22T11:46:55;13.40;99.90
8979;DHT22;4524;51.364;5.448;2024-03-22T11:49:22;13.40;99.90
8979;DHT22;4524;51.364;5.448;2024-03-22T11:51:51;13.40;99.90
8979;DHT22;4524;51.364;5.448;2024-03-22T11:54:19;13.40;99.90
8979;DHT22;4524;51.364;5.448;2024-03-22T11:56:45;13.50;99.90
8979;DHT22;4524;51.364;5.448;2024-03-22T11:59:13;13.50;99.90
8979;DHT22;4524;51.364;5.448;2024-03-22T12:01:40;13.50;99.90
8979;DHT22;4524;51.364;5.448;2024-03-22T12:04:07;13.50;99.90
8979;DHT22;4524;51.364;5.448;2024-03-22T12:06:34;13.50;99.90
8979;DHT22;4524;51.364;5.448;2024-03-22T12:09:02;13.60;99.90
8979;DHT22;4524;51.364;5.448;2024-03-22T12:11:29;13.50;99.90
8979;DHT22;4524;51.364;5.448;2024-03-22T12:13:55;13.40;99.90
8979;DHT22;4524;51.364;5.448;2024-03-22T12:16:22;13.40;99.90
8979;DHT22;4524;51.364;5.448;2024-03-22T12:18:48;13.40;99.90
8979;DHT22;4524;51.364;5.448;2024-03-22T12:21:15;13.40;99.90
8979;DHT22;4524;51.364;5.448;2024-03-22T12:23:41;13.40;99.90
8979;DHT22;4524;51.364;5.448;2024-03-22T12:26:10;13.30;99.90
8979;DHT22;4524;51.364;5.448;2024-03-22T12:28:36;13.40;99.90
8979;DHT22;4524;51.364;5.448;2024-03-22T12:31:04;13.40;99.90
8979;DHT22;4524;51.364;5.448;2024-03-22T12:33:30;13.30;99.90
8979;DHT22;4524;51.364;5.448;2024-03-22T12:35:57;13.30;99.90
8979;DHT22;4524;51.364;5.448;2024-03-22T12:38:23;13.30;99.90
8979;DHT22;4524;51.364;5.448;2024-03-22T12:40:50;13.30;99.90
8979;DHT22;4524;51.364;5.448;2024-03-22T12:43:18;13.40;99.90
8979;DHT22;4524;51.364;5.448;2024-03-22T12:45:45;13.30;99.90
8979;DHT22;4524;51.364;5.448;2024-03-22T12:48:11;13.30;99.90
8979;DHT22;4524;51.364;5.448;2024-03-22T12:50:38;13.30;99.90
8979;DHT22;4524;51.364;5.448;2024-03-22T12:53:05;13.30;99.90
8979;DHT22;4524;51.364;5.448;2024-03-22T12:55:32;13.30;99.90
8979;DHT22;4524;51.364;5.448;2024-03-22T12:57:58;13.30;99.90
8979;DHT22;4524;51.364;5.448;2024-03-22T13:00:26;13.30;99.90
8979;DHT22;4524;51.364;5.448;2024-03-22T13:02:53;13.30;99.90
8979;DHT22;4524;51.364;5.448;2024-03-22T13:05:20;13.30;99.90
8979;DHT22;4524;51.364;5.448;2024-03-22T13:07:46;13.30;99.90
8979;DHT22;4524;51.364;5.448;2024-03-22T13:10:14;13.20;99.90
8979;DHT22;4524;51.364;5.448;2024-03-22T13:12:40;13.20;99.90
8979;DHT22;4524;51.364;5.448;2024-03-22T13:15:07;13.10;99.90
8979;DHT22;4524;51.364;5.448;2024-03-22T13:17:35;13.10;99.90
8979;DHT22;4524;51.364;5.448;2024-03-22T13:20:02;13.20;99.90
8979;DHT22;4524;51.364;5.448;2024-03-22T13:22:36;13.10;99.90
8979;DHT22;4524;51.364;5.448;2024-03-22T13:25:04;13.20;99.90
8979;DHT22;4524;51.364;5.448;2024-03-22T13:27:32;13.10;99.90
8979;DHT22;4524;51.364;5.448;2024-03-22T13:30:00;13.10;99.90
8979;DHT22;4524;51.364;5.448;2024-03-22T13:32:26;13.00;99.90
8979;DHT22;4524;51.364;5.448;2024-03-22T13:34:54;13.00;99.90
8979;DHT22;4524;51.364;5.448;2024-03-22T13:37:20;13.10;99.90
8979;DHT22;4524;51.364;5.448;2024-03-22T13:39:48;13.00;99.90
8979;DHT22;4524;51.364;5.448;2024-03-22T13:42:15;12.80;99.90
8979;DHT22;4524;51.364;5.448;2024-03-22T13:44:42;12.80;99.90
8979;DHT22;4524;51.364;5.448;2024-03-22T13:47:08;12.90;99.90
8979;DHT22;4524;51.364;5.448;2024-03-22T13:49:35;13.00;99.90
8979;DHT22;4524;51.364;5.448;2024-03-22T13:52:03;13.00;99.90
8979;DHT22;4524;51.364;5.448;2024-03-22T13:54:30;13.00;99.90
8979;DHT22;4524;51.364;5.448;2024-03-22T13:56:56;13.00;99.90
8979;DHT22;4524;51.364;5.448;2024-03-22T13:59:23;13.00;99.90
8979;DHT22;4524;51.364;5.448;2024-03-22T14:01:49;12.90;99.90
8979;DHT22;4524;51.364;5.448;2024-03-22T14:04:16;12.90;99.90
8979;DHT22;4524;51.364;5.448;2024-03-22T14:06:42;12.90;99.90
8979;DHT22;4524;51.364;5.448;2024-03-22T14:09:11;13.00;99.90
8979;DHT22;4524;51.364;5.448;2024-03-22T14:11:38;12.90;99.90
8979;DHT22;4524;51.364;5.448;2024-03-22T14:14:05;13.00;99.90
8979;DHT22;4524;51.364;5.448;2024-03-22T14:16:33;13.00;99.90
8979;DHT22;4524;51.364;5.448;2024-03-22T14:19:00;13.00;99.90
8979;DHT22;4524;51.364;5.448;2024-03-22T14:21:27;13.00;99.90
8979;DHT22;4524;51.364;5.448;2024-03-22T14:23:54;13.00;99.90
8979;DHT22;4524;51.364;5.448;2024-03-22T14:26:22;12.90;99.90
8979;DHT22;4524;51.364;5.448;2024-03-22T14:28:50;12.80;99.90
8979;DHT22;4524;51.364;5.448;2024-03-22T14:31:16;12.90;99.90
8979;DHT22;4524;51.364;5.448;2024-03-22T14:33:43;12.80;99.90
8979;DHT22;4524;51.364;5.448;2024-03-22T14:36:10;12.90;99.90
8979;DHT22;4524;51.364;5.448;2024-03-22T14:38:38;12.90;99.90
8979;DHT22;4524;51.364;5.448;2024-03-22T14:41:04;13.00;99.90
8979;DHT22;4524;51.364;5.448;2024-03-22T14:43:33;12.90;99.90
8979;DHT22;4524;51.364;5.448;2024-03-22T14:46:01;12.90;99.90
8979;DHT22;4524;51.364;5.448;2024-03-22T14:48:29;12.90;99.90
8979;DHT22;4524;51.364;5.448;2024-03-22T14:50:55;12.90;99.90
8979;DHT22;4524;51.364;5.448;2024-03-22T14:53:22;13.00;99.90
8979;DHT22;4524;51.364;5.448;2024-03-22T14:55:53;13.00;99.90
8979;DHT22;4524;51.364;5.448;2024-03-22T14:58:20;13.00;99.90
8979;DHT22;4524;51.364;5.448;2024-03-22T15:00:52;12.90;99.90
8979;DHT22;4524;51.364;5.448;2024-03-22T15:03:20;13.00;99.90
8979;DHT22;4524;51.364;5.448;2024-03-22T15:05:46;13.00;99.90
8979;DHT22;4524;51.364;5.448;2024-03-22T15:08:13;12.90;99.90
8979;DHT22;4524;51.364;5.448;2024-03-22T15:10:39;12.90;99.90
8979;DHT22;4524;51.364;5.448;2024-03-22T15:13:06;12.80;99.90
8979;DHT22;4524;51.364;5.448;2024-03-22T15:15:33;12.70;99.90
8979;DHT22;4524;51.364;5.448;2024-03-22T15:18:01;12.80;99.90
8979;DHT22;4524;51.364;5.448;2024-03-22T15:20:27;12.80;99.90
8979;DHT22;4524;51.364;5.448;2024-03-22T15:22:55;12.80;99.90
8979;DHT22;4524;51.364;5.448;2024-03-22T15:25:21;12.60;99.90
8979;DHT22;4524;51.364;5.448;2024-03-22T15:27:48;12.60;99.90
8979;DHT22;4524;51.364;5.448;2024-03-22T15:30:14;12.60;99.90
8979;DHT22;4524;51.364;5.448;2024-03-22T15:32:43;12.60;99.90
8979;DHT22;4524;51.364;5.448;2024-03-22T15:35:11;12.60;99.90
8979;DHT22;4524;51.364;5.448;2024-03-22T15:37:39;12.60;99.90
8979;DHT22;4524;51.364;5.448;2024-03-22T15:40:07;12.60;99.90
8979;DHT22;4524;51.364;5.448;2024-03-22T15:42:35;12.60;99.90
8979;DHT22;4524;51.364;5.448;2024-03-22T15:45:02;12.60;99.90
8979;DHT22;4524;51.364;5.448;2024-03-22T15:47:31;12.60;99.90
8979;DHT22;4524;51.364;5.448;2024-03-22T15:49:58;12.60;99.90
8979;DHT22;4524;51.364;5.448;2024-03-22T15:52:27;12.60;99.90
8979;DHT22;4524;51.364;5.448;2024-03-22T15:54:53;12.50;99.90
8979;DHT22;4524;51.364;5.448;2024-03-22T15:57:20;12.60;99.90
8979;DHT22;4524;51.364;5.448;2024-03-22T15:59:47;12.50;99.90
8979;DHT22;4524;51.364;5.448;2024-03-22T16:02:14;12.50;99.90